createdAt,value
2018-11-29T00:01:39.829Z,6.87
2018-11-29T00:04:13.119Z,7.07
2018-11-29T00:07:00.726Z,7.40
2018-11-29T00:09:36.204Z,8.20
2018-11-29T00:12:08.803Z,7.10
2018-11-29T00:14:39.799Z,7.33
2018-11-29T00:17:15.073Z,7.40
2018-11-29T00:19:45.902Z,8.10
2018-11-29T00:22:16.978Z,6.93
2018-11-29T00:24:48.393Z,6.80
2018-11-29T00:27:28.438Z,6.90
2018-11-29T00:30:02.410Z,7.30
2018-11-29T00:32:35.733Z,7.13
2018-11-29T00:35:08.663Z,5.87
2018-11-29T00:37:40.684Z,6.50
2018-11-29T00:40:14.514Z,6.50
2018-11-29T00:42:46.100Z,6.20
2018-11-29T00:45:18.324Z,6.40
2018-11-29T00:47:49.563Z,6.17
2018-11-29T00:50:21.185Z,6.70
2018-11-29T00:52:53.016Z,6.73
2018-11-29T00:55:24.410Z,6.60
2018-11-29T00:57:55.611Z,6.33
2018-11-29T01:00:26.487Z,6.30
2018-11-29T01:02:57.521Z,6.60
2018-11-29T01:05:28.527Z,5.77
2018-11-29T01:07:59.518Z,6.37
2018-11-29T01:10:31.172Z,6.50
2018-11-29T01:13:01.998Z,7.00
2018-11-29T01:15:33.837Z,5.60
2018-11-29T01:18:04.770Z,6.87
2018-11-29T01:20:35.813Z,6.17
2018-11-29T01:23:07.079Z,6.50
2018-11-29T01:25:38.436Z,6.53
2018-11-29T01:28:12.546Z,6.40
2018-11-29T01:30:43.484Z,6.67
2018-11-29T01:33:15.322Z,6.60
2018-11-29T01:35:46.383Z,6.03
2018-11-29T01:38:17.838Z,6.23
2018-11-29T01:40:49.076Z,6.33
2018-11-29T01:43:20.880Z,7.10
2018-11-29T01:45:52.119Z,6.90
2018-11-29T01:48:23.547Z,7.20
2018-11-29T01:50:54.607Z,6.90
2018-11-29T01:53:25.979Z,6.57
2018-11-29T01:56:01.286Z,6.50
2018-11-29T01:58:32.189Z,7.00
2018-11-29T02:01:03.337Z,7.40
2018-11-29T02:03:34.929Z,6.70
2018-11-29T02:06:10.664Z,7.10
2018-11-29T02:08:42.492Z,6.90
2018-11-29T02:11:15.035Z,7.13
2018-11-29T02:13:45.722Z,6.70
2018-11-29T02:16:16.853Z,6.30
2018-11-29T02:18:47.969Z,6.83
2018-11-29T02:21:19.726Z,6.77
2018-11-29T02:23:51.576Z,7.00
2018-11-29T02:26:23.654Z,6.63
2018-11-29T02:28:54.854Z,6.57
2018-11-29T02:31:32.041Z,7.17
2018-11-29T02:34:02.993Z,6.93
2018-11-29T02:36:34.010Z,6.97
2018-11-29T02:39:06.399Z,7.33
2018-11-29T02:41:37.416Z,7.60
2018-11-29T02:44:08.703Z,7.40
2018-11-29T02:46:39.636Z,6.80
2018-11-29T02:49:10.944Z,7.17
2018-11-29T02:51:42.168Z,6.73
2018-11-29T02:54:13.140Z,6.83
2018-11-29T02:56:44.242Z,7.27
2018-11-29T02:59:15.261Z,6.97
2018-11-29T03:01:46.405Z,7.20
2018-11-29T03:04:17.110Z,7.53
2018-11-29T03:06:48.074Z,7.20
2018-11-29T03:09:18.754Z,7.87
2018-11-29T03:11:49.605Z,7.80
2018-11-29T03:14:20.608Z,8.23
2018-11-29T03:16:52.217Z,7.73
2018-11-29T03:19:23.375Z,7.67
2018-11-29T03:21:54.856Z,8.30
2018-11-29T03:24:25.783Z,8.03
2018-11-29T03:26:56.580Z,8.47
2018-11-29T03:29:28.494Z,7.93
2018-11-29T03:31:59.517Z,8.53
2018-11-29T03:34:30.938Z,7.83
2018-11-29T03:37:02.908Z,8.33
2018-11-29T03:39:33.835Z,8.43
2018-11-29T03:42:05.659Z,7.53
2018-11-29T03:44:36.703Z,8.53
2018-11-29T03:47:07.602Z,9.03
2018-11-29T03:49:38.934Z,8.23
2018-11-29T03:52:09.594Z,7.43
2018-11-29T03:54:41.013Z,8.70
2018-11-29T03:57:12.897Z,8.73
2018-11-29T03:59:44.428Z,8.17
2018-11-29T04:02:15.203Z,8.03
2018-11-29T04:04:45.944Z,8.50
2018-11-29T04:07:16.794Z,7.83
2018-11-29T04:09:48.094Z,8.27
2018-11-29T04:12:20.781Z,8.37
2018-11-29T04:14:51.835Z,7.63
2018-11-29T04:17:23.275Z,8.23
2018-11-29T04:19:54.615Z,8.57
2018-11-29T04:22:27.860Z,8.27
2018-11-29T04:25:00.486Z,8.33
2018-11-29T04:27:32.761Z,8.20
2018-11-29T04:30:04.217Z,8.40
2018-11-29T04:32:35.376Z,8.50
2018-11-29T04:35:07.604Z,8.47
2018-11-29T04:37:38.879Z,7.80
2018-11-29T04:40:12.712Z,7.90
2018-11-29T04:42:43.961Z,8.03
2018-11-29T04:45:16.990Z,8.80
2018-11-29T04:47:48.422Z,7.83
2018-11-29T04:50:20.175Z,8.53
2018-11-29T04:52:50.940Z,7.90
2018-11-29T04:58:38.211Z,8.70
2018-11-29T05:01:18.263Z,7.97
2018-11-29T05:03:48.830Z,8.47
2018-11-29T05:06:19.637Z,8.97
2018-11-29T05:08:50.634Z,8.57
2018-11-29T05:11:21.605Z,7.97
2018-11-29T05:13:52.432Z,9.00
2018-11-29T05:16:23.839Z,8.53
2018-11-29T05:18:54.939Z,9.63
2018-11-29T05:21:25.295Z,10.20
2018-11-29T05:23:56.913Z,9.20
2018-11-29T05:26:27.694Z,10.00
2018-11-29T05:28:59.145Z,10.33
2018-11-29T05:31:30.437Z,11.03
2018-11-29T05:34:01.738Z,10.73
2018-11-29T05:36:40.548Z,11.60
2018-11-29T05:39:11.658Z,11.13
2018-11-29T05:41:48.605Z,11.83
2018-11-29T05:44:20.071Z,11.50
2018-11-29T05:46:51.121Z,10.93
2018-11-29T05:49:28.543Z,11.57
2018-11-29T05:51:59.870Z,11.53
2018-11-29T05:54:35.074Z,12.13
2018-11-29T05:57:06.643Z,12.27
2018-11-29T05:59:38.682Z,11.93
2018-11-29T06:02:09.564Z,13.10
2018-11-29T06:04:40.075Z,12.63
2018-11-29T06:07:10.275Z,12.43
2018-11-29T06:09:41.992Z,12.50
2018-11-29T06:12:12.602Z,12.53
2018-11-29T06:14:43.024Z,12.63
2018-11-29T06:17:13.598Z,11.37
2018-11-29T06:19:43.591Z,12.43
2018-11-29T06:22:14.775Z,13.23
2018-11-29T06:24:45.514Z,12.77
2018-11-29T06:27:15.841Z,12.57
2018-11-29T06:29:45.759Z,12.83
2018-11-29T06:32:16.607Z,12.20
2018-11-29T06:34:46.824Z,12.53
2018-11-29T06:37:17.556Z,13.33
2018-11-29T06:39:47.922Z,13.00
2018-11-29T06:42:17.849Z,12.57
2018-11-29T06:44:48.310Z,13.20
2018-11-29T06:47:20.483Z,12.47
2018-11-29T06:49:50.802Z,13.07
2018-11-29T06:52:21.449Z,12.07
2018-11-29T06:54:51.383Z,12.43
2018-11-29T06:57:21.997Z,12.53
2018-11-29T06:59:51.929Z,12.17
2018-11-29T07:02:28.114Z,12.53
2018-11-29T07:04:58.742Z,12.53
2018-11-29T07:07:29.384Z,12.93
2018-11-29T07:10:02.352Z,13.13
2018-11-29T07:12:32.539Z,12.73
2018-11-29T07:15:03.576Z,13.33
2018-11-29T07:17:34.417Z,12.53
2018-11-29T07:20:06.747Z,11.80
2018-11-29T07:22:37.238Z,12.90
2018-11-29T07:25:08.722Z,13.07
2018-11-29T07:27:39.809Z,11.80
2018-11-29T07:30:16.903Z,12.27
2018-11-29T07:32:48.510Z,11.93
2018-11-29T07:35:19.044Z,12.70
2018-11-29T07:37:49.709Z,11.73
2018-11-29T07:40:24.418Z,11.20
2018-11-29T07:42:56.165Z,12.00
2018-11-29T07:45:26.570Z,12.63
2018-11-29T07:47:56.754Z,11.90
2018-11-29T07:50:27.699Z,11.23
2018-11-29T07:52:57.987Z,11.00
2018-11-29T07:55:29.428Z,11.40
2018-11-29T07:57:59.820Z,10.80
2018-11-29T08:00:30.253Z,11.70
2018-11-29T08:03:00.869Z,11.00
2018-11-29T08:05:31.454Z,12.50
2018-11-29T08:08:01.556Z,11.40
2018-11-29T08:10:32.046Z,11.73
2018-11-29T08:13:02.610Z,10.87
2018-11-29T08:15:32.998Z,11.60
2018-11-29T08:18:03.526Z,11.20
2018-11-29T08:20:33.960Z,10.80
2018-11-29T08:23:04.997Z,11.10
2018-11-29T08:25:35.234Z,12.23
2018-11-29T08:28:05.578Z,11.57
2018-11-29T08:30:35.796Z,11.87
2018-11-29T08:33:06.334Z,11.43
2018-11-29T08:35:40.265Z,11.70
2018-11-29T08:38:11.460Z,11.43
2018-11-29T08:40:41.716Z,11.37
2018-11-29T08:43:12.817Z,12.10
2018-11-29T08:45:43.683Z,11.23
2018-11-29T08:48:14.077Z,11.63
2018-11-29T08:50:44.408Z,10.63
2018-11-29T08:53:15.397Z,11.07
2018-11-29T08:55:45.792Z,9.40
2018-11-29T08:58:16.567Z,10.57
2018-11-29T09:00:47.373Z,10.83
2018-11-29T09:03:18.088Z,11.23
2018-11-29T09:05:48.595Z,9.73
2018-11-29T09:08:18.625Z,10.80
2018-11-29T09:10:49.836Z,10.77
2018-11-29T09:13:20.195Z,10.13
2018-11-29T09:15:51.076Z,9.97
2018-11-29T09:18:22.328Z,10.30
2018-11-29T09:20:54.008Z,10.63
2018-11-29T09:23:24.138Z,10.50
2018-11-29T09:26:02.648Z,9.47
2018-11-29T09:28:33.084Z,10.13
2018-11-29T09:31:04.066Z,9.47
2018-11-29T09:33:34.112Z,9.70
2018-11-29T09:36:04.230Z,10.03
2018-11-29T09:38:34.474Z,8.83
2018-11-29T09:41:04.821Z,9.40
2018-11-29T09:43:34.908Z,10.17
2018-11-29T09:46:06.344Z,10.87
2018-11-29T09:48:36.716Z,10.90
2018-11-29T09:51:07.342Z,9.80
2018-11-29T09:53:37.740Z,10.27
2018-11-29T09:56:08.288Z,10.60
2018-11-29T09:59:09.411Z,11.07
2018-11-29T10:01:39.933Z,11.50
2018-11-29T10:04:10.725Z,10.40
2018-11-29T10:06:40.987Z,10.10
2018-11-29T10:09:11.758Z,10.97
2018-11-29T10:11:42.167Z,9.90
2018-11-29T10:14:12.762Z,10.90
2018-11-29T10:16:43.410Z,9.83
2018-11-29T10:19:23.675Z,10.13
2018-11-29T10:21:54.193Z,10.00
2018-11-29T10:24:24.379Z,10.20
2018-11-29T10:26:54.859Z,11.10
2018-11-29T10:29:25.883Z,10.77
2018-11-29T10:31:56.671Z,10.37
2018-11-29T10:34:27.521Z,10.87
2018-11-29T10:37:00.026Z,10.47
2018-11-29T10:39:30.278Z,10.57
2018-11-29T10:42:01.704Z,10.57
2018-11-29T10:44:32.339Z,10.47
2018-11-29T10:47:03.586Z,10.10
2018-11-29T10:49:34.126Z,10.93
2018-11-29T10:52:04.936Z,10.87
2018-11-29T10:54:35.175Z,10.90
2018-11-29T10:57:05.895Z,9.63
2018-11-29T10:59:36.053Z,10.80
2018-11-29T11:02:11.878Z,11.33
2018-11-29T11:04:42.625Z,10.40
2018-11-29T11:07:13.242Z,10.17
2018-11-29T11:09:44.303Z,10.33
2018-11-29T11:12:18.639Z,10.50
2018-11-29T11:14:45.660Z,9.97
2018-11-29T11:17:19.876Z,9.30
2018-11-29T11:19:52.613Z,10.97
2018-11-29T11:22:30.022Z,11.93
2018-11-29T11:25:02.544Z,10.17
2018-11-29T11:27:34.777Z,10.87
2018-11-29T11:30:16.518Z,10.37
2018-11-29T11:32:48.052Z,11.07
2018-11-29T11:35:18.964Z,11.93
2018-11-29T11:37:49.662Z,11.83
2018-11-29T11:40:20.770Z,12.00
2018-11-29T11:42:52.527Z,11.20
2018-11-29T11:45:23.605Z,12.30
2018-11-29T11:47:54.151Z,12.33
2018-11-29T11:50:25.350Z,13.60
2018-11-29T11:52:56.255Z,13.33
2018-11-29T11:55:29.926Z,13.87
2018-11-29T11:57:56.595Z,13.93
2018-11-29T12:00:28.913Z,12.83
2018-11-29T12:03:05.359Z,12.47
2018-11-29T12:05:36.541Z,13.30
2018-11-29T12:08:09.196Z,12.53
2018-11-29T12:10:40.388Z,12.23
2018-11-29T12:13:11.920Z,11.80
2018-11-29T12:15:42.431Z,10.40
2018-11-29T12:18:13.445Z,10.67
2018-11-29T12:20:43.802Z,10.73
2018-11-29T12:23:14.746Z,11.27
2018-11-29T12:25:44.754Z,10.37
2018-11-29T12:28:15.088Z,10.77
2018-11-29T12:30:47.142Z,9.30
2018-11-29T12:33:17.916Z,10.27
2018-11-29T12:35:48.913Z,9.80
2018-11-29T12:38:19.527Z,10.03
2018-11-29T12:40:50.302Z,9.73
2018-11-29T12:43:20.536Z,9.77
2018-11-29T12:45:50.937Z,10.20
2018-11-29T12:48:21.651Z,8.97
2018-11-29T12:50:52.269Z,10.07
2018-11-29T12:53:22.533Z,9.87
2018-11-29T12:55:53.585Z,10.37
2018-11-29T12:58:23.887Z,11.27
2018-11-29T13:00:54.633Z,10.67
2018-11-29T13:03:26.009Z,11.67
2018-11-29T13:05:56.807Z,11.70
2018-11-29T13:08:27.369Z,12.77
2018-11-29T13:10:58.325Z,11.50
2018-11-29T13:13:28.781Z,12.10
2018-11-29T13:15:59.305Z,12.33
2018-11-29T13:18:29.311Z,10.93
2018-11-29T13:21:03.102Z,11.50
2018-11-29T13:23:33.722Z,11.60
2018-11-29T13:26:03.998Z,12.53
2018-11-29T13:28:34.310Z,11.90
2018-11-29T13:31:05.137Z,11.40
2018-11-29T13:33:35.482Z,10.80
2018-11-29T13:36:07.275Z,11.80
2018-11-29T13:38:38.287Z,11.40
2018-11-29T13:41:08.925Z,11.50
2018-11-29T13:43:39.173Z,11.23
2018-11-29T13:46:09.622Z,12.00
2018-11-29T13:48:40.282Z,11.53
2018-11-29T13:51:10.512Z,10.93
2018-11-29T13:53:41.160Z,12.37
2018-11-29T13:56:12.402Z,11.37
2018-11-29T13:58:43.183Z,11.00
2018-11-29T14:01:13.810Z,10.83
2018-11-29T14:03:44.289Z,10.50
2018-11-29T14:06:15.153Z,11.40
2018-11-29T14:08:46.334Z,10.70
2018-11-29T14:11:17.879Z,10.13
2018-11-29T14:13:47.977Z,10.50
2018-11-29T14:16:19.981Z,10.17
2018-11-29T14:18:50.207Z,9.27
2018-11-29T14:21:21.190Z,9.80
2018-11-29T14:23:51.068Z,9.67
2018-11-29T14:26:22.724Z,9.90
2018-11-29T14:28:52.914Z,9.23
2018-11-29T14:31:23.340Z,9.77
2018-11-29T14:33:54.082Z,8.73
2018-11-29T14:36:24.328Z,9.53
2018-11-29T14:38:54.754Z,8.80
2018-11-29T14:41:24.656Z,8.97
2018-11-29T14:43:54.693Z,8.80
2018-11-29T14:46:25.199Z,8.80
2018-11-29T14:48:55.410Z,9.83
2018-11-29T14:51:25.952Z,8.60
2018-11-29T14:53:56.484Z,9.63
2018-11-29T14:56:27.272Z,9.73
2018-11-29T14:58:57.870Z,9.70
2018-11-29T15:01:28.510Z,9.63
2018-11-29T15:03:58.942Z,10.00
2018-11-29T15:06:29.679Z,8.40
2018-11-29T15:09:00.468Z,9.83
2018-11-29T15:11:30.801Z,9.87
2018-11-29T15:14:01.446Z,10.43
2018-11-29T15:16:34.237Z,9.90
2018-11-29T15:19:05.763Z,11.03
2018-11-29T15:21:36.317Z,9.33
2018-11-29T15:24:07.281Z,9.80
2018-11-29T15:26:38.075Z,9.83
2018-11-29T15:29:08.376Z,12.17
2018-11-29T15:31:40.093Z,10.47
2018-11-29T15:34:10.418Z,11.70
2018-11-29T15:36:44.930Z,10.83
2018-11-29T15:39:22.054Z,10.83
2018-11-29T15:41:56.036Z,10.50
2018-11-29T15:44:30.170Z,9.80
2018-11-29T15:47:01.583Z,9.73
2018-11-29T15:49:34.077Z,10.23
2018-11-29T15:52:06.696Z,9.17
2018-11-29T15:54:40.746Z,9.53
2018-11-29T15:57:14.712Z,9.23
2018-11-29T15:59:48.885Z,9.47
2018-11-29T16:02:22.739Z,8.77
2018-11-29T16:05:04.012Z,9.77
2018-11-29T16:07:36.476Z,9.17
2018-11-29T16:10:13.424Z,9.53
2018-11-29T16:12:47.843Z,9.37
2018-11-29T16:15:21.790Z,9.87
2018-11-29T16:17:57.907Z,8.40
2018-11-29T16:20:36.692Z,8.93
2018-11-29T16:23:10.379Z,9.17
2018-11-29T16:25:44.936Z,9.07
2018-11-29T16:28:19.969Z,9.10
2018-11-29T16:30:57.737Z,8.13
2018-11-29T16:33:35.529Z,8.90
2018-11-29T16:36:11.138Z,8.33
2018-11-29T16:38:44.826Z,8.83
2018-11-29T16:41:16.640Z,8.70
2018-11-29T16:43:49.468Z,8.37
2018-11-29T16:46:22.410Z,7.87
2018-11-29T16:48:56.999Z,8.50
2018-11-29T16:51:33.304Z,8.83
2018-11-29T16:54:05.247Z,8.20
2018-11-29T16:56:37.244Z,8.33
2018-11-29T16:59:12.702Z,8.37
2018-11-29T17:01:47.945Z,7.47
2018-11-29T17:04:22.315Z,7.67
2018-11-29T17:06:56.984Z,8.17
2018-11-29T17:09:29.799Z,7.83
2018-11-29T17:12:11.637Z,7.63
2018-11-29T17:14:46.809Z,8.43
2018-11-29T17:17:21.096Z,7.67
2018-11-29T17:19:57.165Z,7.30
2018-11-29T17:22:29.537Z,7.70
2018-11-29T17:25:00.167Z,7.93
2018-11-29T17:27:31.820Z,7.93
2018-11-29T17:30:03.484Z,8.07
2018-11-29T17:32:35.406Z,8.07
2018-11-29T17:35:07.536Z,7.63
2018-11-29T17:37:41.544Z,7.53
2018-11-29T17:40:14.375Z,8.43
2018-11-29T17:42:46.026Z,7.80
2018-11-29T17:45:20.243Z,7.80
2018-11-29T17:47:51.835Z,7.67
2018-11-29T17:50:39.248Z,7.80
2018-11-29T17:53:10.658Z,7.87
2018-11-29T17:55:40.830Z,7.80
2018-11-29T17:58:12.337Z,8.40
2018-11-29T18:00:43.827Z,8.37
2018-11-29T18:03:15.127Z,8.37
2018-11-29T18:05:45.565Z,8.03
2018-11-29T18:08:21.702Z,7.57
2018-11-29T18:10:54.910Z,8.90
2018-11-29T18:13:29.198Z,8.40
2018-11-29T18:15:59.447Z,8.47
2018-11-29T18:18:29.823Z,8.70
2018-11-29T18:21:00.342Z,8.30
2018-11-29T18:23:30.297Z,7.97
2018-11-29T18:26:02.118Z,8.40
2018-11-29T18:28:33.523Z,8.13
2018-11-29T18:31:03.935Z,9.07
2018-11-29T18:33:35.322Z,8.70
2018-11-29T18:36:05.794Z,7.83
2018-11-29T18:38:36.920Z,8.10
2018-11-29T18:41:07.178Z,8.70
2018-11-29T18:43:37.788Z,8.77
2018-11-29T18:46:17.102Z,7.80
2018-11-29T18:48:44.325Z,8.83
2018-11-29T18:51:15.335Z,8.27
2018-11-29T18:53:45.707Z,9.07
2018-11-29T18:56:16.223Z,8.80
2018-11-29T18:58:46.971Z,8.80
2018-11-29T19:01:18.679Z,8.33
2018-11-29T19:03:48.897Z,9.20
2018-11-29T19:06:18.996Z,9.43
2018-11-29T19:08:49.535Z,9.17
2018-11-29T19:11:19.824Z,8.80
2018-11-29T19:13:50.497Z,8.43
2018-11-29T19:16:21.057Z,8.63
2018-11-29T19:18:50.985Z,9.23
2018-11-29T19:21:21.343Z,8.50
2018-11-29T19:23:53.532Z,8.20
2018-11-29T19:26:23.838Z,9.17
2018-11-29T19:28:54.054Z,9.03
2018-11-29T19:31:24.714Z,9.47
2018-11-29T19:33:57.882Z,8.60
2018-11-29T19:36:25.361Z,8.70
2018-11-29T19:38:57.531Z,9.03
2018-11-29T19:41:32.079Z,8.97
2018-11-29T19:44:05.212Z,8.43
2018-11-29T19:46:35.789Z,7.80
2018-11-29T19:49:06.249Z,7.73
2018-11-29T19:51:37.687Z,8.43
2018-11-29T19:54:08.012Z,7.97
2018-11-29T19:56:40.342Z,7.97
2018-11-29T19:59:12.116Z,8.00
2018-11-29T20:01:42.600Z,7.90
2018-11-29T20:04:13.116Z,8.23
2018-11-29T20:06:43.583Z,7.73
2018-11-29T20:09:15.836Z,8.03
2018-11-29T20:11:47.029Z,7.57
2018-11-29T20:14:17.441Z,8.07
2018-11-29T20:16:48.028Z,7.67
2018-11-29T20:19:19.681Z,7.27
2018-11-29T20:21:50.511Z,7.20
2018-11-29T20:24:21.348Z,7.03
2018-11-29T20:26:52.494Z,7.80
2018-11-29T20:29:23.083Z,7.93
2018-11-29T20:31:54.153Z,7.40
2018-11-29T20:34:24.683Z,7.40
2018-11-29T20:36:55.327Z,7.27
2018-11-29T20:39:26.312Z,7.40
2018-11-29T20:41:56.714Z,8.03
2018-11-29T20:44:27.234Z,7.90
2018-11-29T20:46:58.942Z,7.70
2018-11-29T20:49:30.259Z,7.30
2018-11-29T20:52:01.271Z,7.80
2018-11-29T20:54:32.801Z,7.20
2018-11-29T20:57:04.670Z,7.67
2018-11-29T20:59:37.065Z,7.83
2018-11-29T21:02:12.299Z,8.47
2018-11-29T21:04:49.117Z,7.40
2018-11-29T21:07:20.262Z,7.67
2018-11-29T21:09:51.043Z,8.07
2018-11-29T21:12:21.837Z,7.20
2018-11-29T21:14:52.675Z,7.63
2018-11-29T21:17:23.701Z,7.37
2018-11-29T21:19:54.821Z,7.83
2018-11-29T21:22:26.462Z,7.37
2018-11-29T21:24:57.015Z,7.53
2018-11-29T21:27:27.697Z,7.83
2018-11-29T21:29:58.469Z,7.47
2018-11-29T21:32:29.537Z,8.43
2018-11-29T21:35:00.324Z,7.73
2018-11-29T21:37:31.398Z,7.90
2018-11-29T21:40:01.976Z,7.33
2018-11-29T21:42:33.010Z,7.83
2018-11-29T21:45:03.752Z,7.97
2018-11-29T21:47:34.734Z,6.73
2018-11-29T21:50:07.265Z,7.50
2018-11-29T21:52:37.653Z,7.20
2018-11-29T21:55:08.101Z,8.53
2018-11-29T21:57:39.060Z,7.50
2018-11-29T22:00:12.857Z,7.50
2018-11-29T22:02:45.179Z,8.10
2018-11-29T22:05:15.491Z,7.20
2018-11-29T22:07:47.892Z,7.13
2018-11-29T22:10:21.423Z,7.43
2018-11-29T22:12:52.864Z,6.73
2018-11-29T22:15:25.203Z,7.20
2018-11-29T22:18:22.314Z,7.07
2018-11-29T22:21:00.639Z,6.93
2018-11-29T22:23:34.576Z,6.90
2018-11-29T22:26:07.525Z,7.20
2018-11-29T22:28:39.501Z,6.87
2018-11-29T22:31:10.251Z,6.97
2018-11-29T22:33:40.709Z,6.60
2018-11-29T22:36:11.843Z,6.83
2018-11-29T22:38:47.330Z,6.93
2018-11-29T22:41:17.658Z,6.93
2018-11-29T22:43:53.080Z,6.67
2018-11-29T22:46:23.330Z,7.20
2018-11-29T22:48:54.225Z,7.07
2018-11-29T22:51:24.126Z,6.50
2018-11-29T22:53:55.599Z,6.83
2018-11-29T22:56:25.984Z,6.87
2018-11-29T22:58:56.652Z,6.77
2018-11-29T23:01:28.532Z,6.33
2018-11-29T23:03:58.870Z,6.70
2018-11-29T23:06:29.535Z,6.47
2018-11-29T23:09:00.110Z,7.13
2018-11-29T23:11:30.628Z,6.37
2018-11-29T23:14:01.250Z,6.40
2018-11-29T23:16:31.634Z,6.17
2018-11-29T23:19:02.586Z,6.63
2018-11-29T23:21:32.764Z,6.10
2018-11-29T23:24:03.424Z,6.00
2018-11-29T23:26:33.920Z,6.57
2018-11-29T23:29:04.811Z,6.20
2018-11-29T23:31:35.266Z,6.50
2018-11-29T23:34:05.654Z,6.83
2018-11-29T23:36:36.408Z,6.33
2018-11-29T23:39:08.271Z,6.77
2018-11-29T23:41:39.006Z,6.03
2018-11-29T23:44:09.319Z,6.97
2018-11-29T23:46:40.021Z,6.00
2018-11-29T23:49:10.152Z,6.27
2018-11-29T23:51:40.253Z,6.77
2018-11-29T23:54:10.704Z,6.87
2018-11-29T23:56:40.806Z,5.90
2018-11-29T23:59:10.941Z,6.23
